Time;durP1;ratioP1;P1;durP2;ratioP2;P2;SDS_P1;SDS_P2;PMS_P1;PMS_P2;Temp;Humidity;BMP_temperature;BMP_pressure;BME280_temperature;BME280_humidity;BME280_pressure;Samples;Min_cycle;Max_cycle;Signal;HPM_P1;HPM_P2
2021/10/29 00:01:31;;;;;;;33.42;21.80;;;25.00;40.30;;;;;;6174247;28;83597;-66
2021/10/29 00:04:31;;;;;;;31.63;22.00;;;24.90;40.20;;;;;;6175534;28;83015;-66
2021/10/29 00:07:32;;;;;;;38.85;23.73;;;24.90;40.30;;;;;;6174591;28;83375;-67
2021/10/29 00:10:32;;;;;;;38.42;23.50;;;24.90;41.10;;;;;;6175647;28;83254;-67
2021/10/29 00:13:33;;;;;;;35.80;22.33;;;24.90;40.20;;;;;;6172650;28;86188;-66
2021/10/29 00:16:33;;;;;;;33.47;22.42;;;24.90;40.20;;;;;;6176200;28;83430;-67
2021/10/29 00:19:34;;;;;;;34.70;21.58;;;24.90;40.20;;;;;;6174592;28;83099;-67
2021/10/29 00:22:35;;;;;;;34.10;21.88;;;24.80;40.40;;;;;;6173044;28;82960;-67
2021/10/29 00:25:36;;;;;;;40.25;23.45;;;24.90;40.90;;;;;;6174988;28;83431;-67
2021/10/29 00:28:36;;;;;;;31.77;20.85;;;24.90;40.40;;;;;;6174321;28;83232;-66
2021/10/29 00:31:37;;;;;;;33.00;22.30;;;24.90;40.50;;;;;;6175047;28;85465;-67
2021/10/29 00:34:37;;;;;;;33.55;22.25;;;24.80;40.60;;;;;;6172987;28;83333;-67
2021/10/29 00:37:39;;;;;;;31.42;20.75;;;24.80;40.10;;;;;;6167870;28;83258;-66
2021/10/29 00:40:40;;;;;;;35.10;21.40;;;24.80;40.30;;;;;;6156716;28;88397;-68
2021/10/29 00:43:40;;;;;;;35.38;22.95;;;24.80;40.70;;;;;;6159814;28;83044;-67
2021/10/29 00:46:41;;;;;;;32.70;20.98;;;24.80;40.70;;;;;;6168667;28;83180;-67
2021/10/29 00:49:41;;;;;;;33.45;22.33;;;24.80;40.50;;;;;;6163283;28;83847;-67
2021/10/29 00:52:42;;;;;;;37.28;22.42;;;24.80;40.20;;;;;;6161998;28;83347;-67
2021/10/29 00:55:42;;;;;;;38.55;23.60;;;24.80;40.10;;;;;;6155155;28;83487;-67
2021/10/29 00:58:43;;;;;;;36.67;22.27;;;24.80;40.20;;;;;;6159696;28;84489;-68
2021/10/29 01:01:43;;;;;;;35.88;23.17;;;24.80;40.00;;;;;;6160807;28;83522;-67
2021/10/29 01:04:44;;;;;;;33.78;22.98;;;24.80;40.00;;;;;;6153451;28;84301;-68
2021/10/29 01:07:44;;;;;;;32.30;21.33;;;24.80;40.20;;;;;;6147840;28;85978;-67
2021/10/29 01:10:45;;;;;;;39.38;23.63;;;24.80;40.10;;;;;;6136518;28;82768;-67
2021/10/29 01:13:45;;;;;;;31.60;22.05;;;24.80;40.00;;;;;;6138956;28;84162;-68
2021/10/29 01:16:46;;;;;;;35.67;22.45;;;24.80;40.20;;;;;;6148964;28;83091;-68
2021/10/29 01:19:46;;;;;;;35.13;22.73;;;24.80;40.00;;;;;;6142895;28;83565;-68
2021/10/29 01:22:47;;;;;;;34.90;22.55;;;24.70;40.10;;;;;;6137467;28;84056;-68
2021/10/29 01:25:47;;;;;;;35.03;22.00;;;24.80;40.10;;;;;;6143557;28;83216;-67
2021/10/29 01:28:48;;;;;;;36.88;23.40;;;24.80;40.00;;;;;;6153550;28;84551;-67
2021/10/29 01:31:48;;;;;;;36.72;21.63;;;24.80;39.90;;;;;;6142315;28;84067;-67
2021/10/29 01:34:49;;;;;;;35.92;21.35;;;24.80;40.50;;;;;;6142967;28;82939;-67
2021/10/29 01:37:49;;;;;;;35.00;23.08;;;24.70;40.20;;;;;;6154734;28;83714;-67
2021/10/29 01:40:50;;;;;;;35.40;22.40;;;24.70;40.30;;;;;;6137921;28;83111;-66
2021/10/29 01:43:51;;;;;;;32.38;21.52;;;24.70;40.10;;;;;;6146943;28;83172;-67
2021/10/29 01:46:51;;;;;;;32.15;20.08;;;24.70;40.50;;;;;;6156041;28;84861;-68
2021/10/29 01:49:52;;;;;;;32.97;21.55;;;24.70;40.60;;;;;;6146609;28;84083;-67
2021/10/29 01:52:52;;;;;;;36.90;21.75;;;24.70;41.10;;;;;;6148666;28;83078;-68
2021/10/29 01:55:53;;;;;;;33.75;20.92;;;24.70;40.30;;;;;;6152431;28;83205;-67
2021/10/29 01:58:53;;;;;;;32.03;19.08;;;24.70;40.30;;;;;;6137705;28;83655;-67
2021/10/29 02:01:54;;;;;;;32.95;21.58;;;24.70;40.40;;;;;;6135055;28;83915;-67
2021/10/29 02:04:54;;;;;;;27.90;18.08;;;24.70;40.10;;;;;;6144151;28;83498;-67
2021/10/29 02:07:55;;;;;;;26.33;18.58;;;24.70;40.60;;;;;;6145803;28;84913;-66
2021/10/29 02:10:56;;;;;;;34.17;22.00;;;24.70;40.90;;;;;;6149110;28;83412;-67
2021/10/29 02:13:56;;;;;;;32.30;21.00;;;24.70;40.10;;;;;;6137650;28;83285;-66
2021/10/29 02:16:57;;;;;;;29.92;20.65;;;24.70;40.00;;;;;;6146035;28;83473;-66
2021/10/29 02:19:57;;;;;;;31.75;20.70;;;24.70;40.30;;;;;;6144478;28;86205;-67
2021/10/29 02:22:58;;;;;;;30.67;19.83;;;24.60;40.20;;;;;;6137936;28;83462;-66
2021/10/29 02:25:58;;;;;;;28.52;19.45;;;24.70;40.50;;;;;;6150362;28;83649;-66
2021/10/29 02:28:59;;;;;;;33.72;21.70;;;24.70;40.50;;;;;;6146840;28;83051;-67
2021/10/29 02:32:00;;;;;;;35.45;21.77;;;24.70;40.00;;;;;;6146969;28;84208;-68
2021/10/29 02:35:00;;;;;;;33.30;21.88;;;24.70;39.90;;;;;;6146837;28;83594;-67
2021/10/29 02:38:01;;;;;;;33.65;22.48;;;24.70;39.30;;;;;;6138837;28;83275;-67
2021/10/29 02:41:02;;;;;;;34.75;22.58;;;24.70;38.90;;;;;;6140438;28;82781;-67
2021/10/29 02:44:03;;;;;;;36.38;23.60;;;24.70;38.70;;;;;;6135634;28;83455;-67
2021/10/29 02:47:03;;;;;;;38.05;22.98;;;24.70;39.20;;;;;;6151208;28;83820;-67
2021/10/29 02:50:04;;;;;;;33.17;23.15;;;24.80;38.60;;;;;;6148379;28;84149;-67
2021/10/29 02:53:05;;;;;;;37.13;23.33;;;24.80;38.80;;;;;;6143294;28;84712;-67
2021/10/29 02:56:07;;;;;;;33.80;22.83;;;24.80;38.70;;;;;;6148287;28;85080;-67
2021/10/29 02:59:08;;;;;;;39.40;22.33;;;24.80;38.50;;;;;;6151346;28;83014;-67
2021/10/29 03:02:08;;;;;;;33.63;22.33;;;24.80;38.60;;;;;;6151548;28;83907;-68
2021/10/29 03:05:09;;;;;;;36.13;21.88;;;24.90;38.50;;;;;;6141568;28;83435;-68
2021/10/29 03:08:09;;;;;;;33.80;22.13;;;24.90;38.60;;;;;;6145813;28;84776;-67
2021/10/29 03:11:10;;;;;;;33.78;21.58;;;24.90;38.60;;;;;;6135070;28;82996;-67
2021/10/29 03:14:11;;;;;;;36.38;23.15;;;24.90;38.40;;;;;;6144826;28;83325;-67
2021/10/29 03:17:12;;;;;;;33.63;21.33;;;24.90;38.40;;;;;;6137261;28;83585;-70
2021/10/29 03:20:12;;;;;;;37.00;22.25;;;24.90;38.40;;;;;;6136851;28;82975;-71
2021/10/29 03:23:14;;;;;;;30.80;21.13;;;24.90;38.30;;;;;;6144155;28;83002;-71
2021/10/29 03:26:14;;;;;;;33.20;21.70;;;24.90;38.50;;;;;;6145655;28;83232;-69
2021/10/29 03:29:15;;;;;;;36.13;21.55;;;24.90;38.20;;;;;;6152899;28;83911;-69
2021/10/29 03:32:18;;;;;;;33.20;21.60;;;24.90;38.30;;;;;;6157774;28;84362;-69
2021/10/29 03:35:18;;;;;;;30.98;20.60;;;25.00;38.20;;;;;;6149628;28;83318;-69
2021/10/29 03:41:50;;;;;;;34.47;21.80;;;24.90;38.10;;;;;;6133616;28;83187;-69
2021/10/29 03:45:00;;;;;;;30.20;20.17;;;25.00;38.00;;;;;;6146700;28;83158;-68
2021/10/29 03:48:01;;;;;;;30.52;21.50;;;25.00;38.20;;;;;;6140212;28;83767;-69
2021/10/29 03:54:23;;;;;;;41.50;22.92;;;25.00;37.80;;;;;;6144316;28;83172;-66
2021/10/29 03:57:24;;;;;;;36.25;21.88;;;25.10;38.30;;;;;;6145298;28;83168;-65
2021/10/29 04:00:28;;;;;;;40.25;23.25;;;25.00;38.30;;;;;;6142687;28;83546;-62
2021/10/29 04:03:29;;;;;;;36.92;22.77;;;25.00;38.90;;;;;;6147925;28;83515;-62
2021/10/29 04:06:30;;;;;;;42.28;22.83;;;25.10;38.00;;;;;;6139658;28;83890;-63
2021/10/29 04:09:30;;;;;;;42.30;23.20;;;25.10;38.60;;;;;;6138860;28;83565;-62
2021/10/29 04:12:31;;;;;;;41.28;23.98;;;25.10;38.00;;;;;;6144875;28;85686;-65
2021/10/29 04:15:32;;;;;;;39.72;23.02;;;25.10;38.10;;;;;;6135767;28;83300;-65
2021/10/29 04:18:33;;;;;;;36.90;21.67;;;25.10;38.00;;;;;;6147460;28;83858;-65
2021/10/29 04:21:34;;;;;;;39.42;22.60;;;25.10;38.40;;;;;;6147138;28;83632;-65
2021/10/29 04:24:35;;;;;;;46.78;23.10;;;25.10;38.60;;;;;;6135476;28;89506;-63
2021/10/29 04:27:42;;;;;;;41.45;23.98;;;25.10;38.70;;;;;;6148850;28;83191;-65
2021/10/29 04:30:43;;;;;;;41.50;23.50;;;25.10;39.20;;;;;;6146584;28;84479;-65
2021/10/29 04:33:44;;;;;;;41.95;22.75;;;25.10;39.20;;;;;;6144436;28;84417;-65
2021/10/29 04:36:45;;;;;;;41.25;23.17;;;25.00;39.40;;;;;;6130558;28;86770;-66
2021/10/29 04:39:46;;;;;;;38.05;23.10;;;25.10;39.70;;;;;;6138598;28;83281;-64
2021/10/29 04:42:46;;;;;;;37.72;23.38;;;25.10;39.50;;;;;;6142733;28;83431;-62
2021/10/29 04:45:47;;;;;;;37.15;23.45;;;25.00;39.60;;;;;;6141260;28;82811;-65
2021/10/29 04:48:47;;;;;;;43.17;23.58;;;25.00;39.60;;;;;;6141645;28;83349;-61
2021/10/29 04:51:48;;;;;;;36.17;23.55;;;25.00;39.60;;;;;;6145825;28;84504;-62
2021/10/29 04:54:50;;;;;;;40.47;24.02;;;25.00;39.60;;;;;;6143207;28;85637;-66
2021/10/29 04:57:50;;;;;;;38.25;23.65;;;25.00;39.80;;;;;;6152495;28;83882;-64
2021/10/29 05:00:51;;;;;;;45.55;23.02;;;25.00;40.00;;;;;;6138341;28;83135;-65
2021/10/29 05:03:51;;;;;;;37.97;23.40;;;25.00;40.10;;;;;;6136443;28;83097;-65
2021/10/29 05:06:52;;;;;;;37.45;23.35;;;25.00;39.90;;;;;;6155891;28;83422;-65
2021/10/29 05:09:52;;;;;;;38.15;23.20;;;25.00;39.70;;;;;;6154901;28;83052;-64
2021/10/29 05:12:53;;;;;;;36.80;22.33;;;25.00;39.70;;;;;;6140547;28;84266;-65
2021/10/29 05:15:53;;;;;;;36.13;22.95;;;25.00;39.80;;;;;;6142162;28;84424;-64
2021/10/29 05:18:54;;;;;;;36.92;23.77;;;25.00;39.80;;;;;;6145218;28;83644;-65
2021/10/29 05:21:54;;;;;;;35.17;21.52;;;25.00;39.80;;;;;;6150205;28;83331;-65
2021/10/29 05:24:55;;;;;;;38.70;22.80;;;25.00;39.70;;;;;;6146915;28;82871;-65
2021/10/29 05:27:55;;;;;;;37.20;22.88;;;25.00;39.70;;;;;;6144715;28;83230;-64
2021/10/29 05:30:56;;;;;;;36.33;23.02;;;25.00;39.80;;;;;;6146862;28;84055;-64
2021/10/29 05:33:56;;;;;;;36.03;22.73;;;25.00;40.30;;;;;;6137107;28;84538;-64
2021/10/29 05:36:57;;;;;;;34.92;21.75;;;25.00;39.70;;;;;;6153258;28;82881;-63
2021/10/29 05:39:58;;;;;;;42.30;24.73;;;25.00;39.70;;;;;;6149096;28;83198;-64
2021/10/29 05:42:58;;;;;;;34.05;20.27;;;24.90;39.70;;;;;;6144336;28;83447;-64
2021/10/29 05:45:59;;;;;;;440.70;141.70;;;24.80;39.90;;;;;;6142530;28;84225;-64
2021/10/29 05:48:59;;;;;;;329.67;107.60;;;24.60;40.20;;;;;;6149759;28;85431;-64
2021/10/29 05:52:00;;;;;;;241.13;82.97;;;24.60;40.30;;;;;;6146121;28;86451;-65
2021/10/29 05:58:16;;;;;;;427.70;140.00;;;24.50;39.70;;;;;;6141882;28;83994;-65
2021/10/29 06:01:17;;;;;;;331.73;112.75;;;24.40;40.00;;;;;;6139887;28;85744;-66
2021/10/29 06:04:18;;;;;;;225.90;79.63;;;24.40;40.10;;;;;;6147468;28;85611;-64
2021/10/29 06:07:19;;;;;;;171.85;63.00;;;24.40;39.70;;;;;;6135608;28;86017;-65
2021/10/29 06:10:20;;;;;;;139.85;50.78;;;24.40;40.00;;;;;;6134745;28;83308;-64
2021/10/29 06:13:21;;;;;;;104.40;39.88;;;24.50;39.80;;;;;;6139419;28;83994;-63
2021/10/29 06:16:22;;;;;;;85.90;30.77;;;24.50;39.60;;;;;;6138090;28;83199;-62
2021/10/29 06:19:22;;;;;;;69.57;27.48;;;24.50;39.90;;;;;;6149409;28;83856;-62
2021/10/29 06:22:29;;;;;;;52.63;23.00;;;24.50;39.80;;;;;;6141232;28;83390;-63
2021/10/29 06:25:31;;;;;;;38.63;19.33;;;24.50;39.80;;;;;;6137798;28;83336;-63
2021/10/29 06:28:32;;;;;;;41.38;17.73;;;24.50;39.80;;;;;;6137219;28;83838;-66
2021/10/29 06:31:32;;;;;;;30.60;15.27;;;24.50;40.30;;;;;;6141823;28;83517;-64
2021/10/29 06:34:34;;;;;;;31.42;13.55;;;24.50;40.00;;;;;;6143633;28;83569;-64
2021/10/29 06:37:34;;;;;;;29.77;14.07;;;24.60;39.80;;;;;;6141421;28;83378;-64
2021/10/29 06:40:40;;;;;;;20.83;12.07;;;24.60;39.60;;;;;;6147794;28;83406;-63
2021/10/29 06:43:46;;;;;;;20.50;12.15;;;24.60;39.40;;;;;;6136833;28;86202;-64
2021/10/29 07:11:35;;;;;;;18.17;10.70;;;24.90;39.10;;;;;;6140623;28;83277;-64
2021/10/29 07:41:59;;;;;;;13.73;8.88;;;25.50;39.40;;;;;;6137710;28;81288;-65
2021/10/29 07:45:00;;;;;;;16.23;10.55;;;25.60;39.70;;;;;;6142695;28;82034;-63
2021/10/29 07:48:01;;;;;;;15.18;8.95;;;25.60;39.60;;;;;;6140226;28;84098;-63
2021/10/29 07:51:01;;;;;;;18.65;10.05;;;25.70;40.00;;;;;;6148118;28;82939;-66
2021/10/29 07:54:02;;;;;;;18.80;13.88;;;25.70;39.60;;;;;;6142335;28;83261;-66
2021/10/29 07:57:02;;;;;;;21.27;15.45;;;25.40;38.60;;;;;;6143742;28;84414;-66
2021/10/29 08:00:04;;;;;;;25.60;16.05;;;25.20;38.60;;;;;;6147952;28;82822;-68
2021/10/29 08:03:07;;;;;;;21.77;14.45;;;25.10;38.20;;;;;;6151360;28;83098;-66
2021/10/29 08:06:07;;;;;;;26.17;15.85;;;25.10;38.30;;;;;;6147638;28;83499;-66
2021/10/29 08:09:10;;;;;;;30.23;17.92;;;25.00;38.20;;;;;;6144067;28;84606;-66
2021/10/29 08:12:10;;;;;;;26.38;15.35;;;25.00;38.10;;;;;;6149317;28;83539;-66
2021/10/29 08:15:11;;;;;;;33.55;17.80;;;24.90;38.00;;;;;;6153398;28;83946;-66
2021/10/29 08:18:11;;;;;;;24.38;17.52;;;24.90;38.10;;;;;;6148695;28;83378;-67
2021/10/29 08:21:13;;;;;;;27.08;15.82;;;24.90;38.00;;;;;;6156134;28;83054;-65
2021/10/29 08:24:13;;;;;;;29.20;20.08;;;24.90;37.90;;;;;;6151626;28;83266;-65
2021/10/29 08:27:14;;;;;;;28.92;18.90;;;24.90;37.70;;;;;;6148578;28;83416;-68
2021/10/29 08:30:15;;;;;;;29.38;18.90;;;24.90;37.90;;;;;;6152531;28;85260;-67
2021/10/29 08:33:16;;;;;;;32.75;21.27;;;24.90;37.80;;;;;;6150498;28;82839;-66
2021/10/29 08:36:19;;;;;;;29.35;18.00;;;24.90;37.40;;;;;;6154370;28;83814;-67
2021/10/29 08:39:19;;;;;;;25.30;17.25;;;24.90;37.50;;;;;;6151101;28;85713;-66
2021/10/29 08:42:20;;;;;;;28.92;19.48;;;24.90;37.40;;;;;;6152068;28;83210;-66
2021/10/29 08:45:21;;;;;;;28.48;18.98;;;25.00;37.20;;;;;;6150114;28;83140;-66
2021/10/29 08:48:21;;;;;;;27.27;19.63;;;25.00;37.20;;;;;;6150187;28;83808;-67
2021/10/29 08:51:22;;;;;;;24.98;18.67;;;25.10;37.10;;;;;;6153659;28;83084;-66
2021/10/29 08:54:23;;;;;;;29.80;18.73;;;25.10;36.90;;;;;;6150143;28;86272;-65
2021/10/29 08:57:25;;;;;;;35.15;17.90;;;25.20;36.80;;;;;;6162493;28;83813;-66
2021/10/29 09:00:29;;;;;;;30.15;17.65;;;25.30;36.80;;;;;;6150445;28;84316;-67
2021/10/29 09:03:40;;;;;;;23.58;16.73;;;25.40;36.90;;;;;;6153272;28;83381;-67
2021/10/29 09:06:50;;;;;;;26.25;16.33;;;25.50;37.00;;;;;;6147460;28;83529;-66
2021/10/29 09:32:28;;;;;;;23.17;15.13;;;26.10;37.20;;;;;;6147319;28;86121;-68
2021/10/29 09:35:29;;;;;;;23.38;14.60;;;26.10;37.10;;;;;;6149709;28;83284;-67
2021/10/29 09:38:29;;;;;;;19.90;14.35;;;26.20;37.00;;;;;;6145312;28;83554;-67
2021/10/29 09:41:53;;;;;;;23.17;15.13;;;26.30;37.10;;;;;;6141241;28;83904;-67
2021/10/29 09:44:53;;;;;;;22.40;13.90;;;26.30;37.10;;;;;;6154274;28;83209;-69
2021/10/29 09:47:57;;;;;;;22.13;14.80;;;26.40;37.20;;;;;;6144429;28;83201;-68
2021/10/29 09:50:58;;;;;;;20.05;14.13;;;26.40;37.00;;;;;;6148475;28;84008;-66
2021/10/29 09:54:04;;;;;;;19.67;14.00;;;26.50;37.40;;;;;;6144275;28;83201;-68
2021/10/29 09:57:04;;;;;;;21.63;13.87;;;26.60;37.70;;;;;;6149861;28;83153;-67
2021/10/29 10:00:05;;;;;;;20.58;13.77;;;26.70;37.60;;;;;;6151640;28;89196;-67
2021/10/29 10:03:14;;;;;;;16.77;11.55;;;26.80;37.90;;;;;;6139720;28;83050;-68
2021/10/29 10:06:15;;;;;;;15.35;10.18;;;26.80;37.90;;;;;;6147190;28;84195;-67
2021/10/29 10:09:16;;;;;;;16.98;10.25;;;26.80;37.80;;;;;;6149211;28;83933;-63
2021/10/29 10:12:17;;;;;;;16.80;10.85;;;27.00;38.30;;;;;;6147790;28;83479;-67
2021/10/29 10:15:18;;;;;;;17.08;9.98;;;27.00;38.10;;;;;;6150287;28;83888;-65
2021/10/29 10:18:18;;;;;;;16.10;9.85;;;27.10;38.10;;;;;;6147243;28;84036;-66
2021/10/29 10:21:21;;;;;;;18.45;11.27;;;27.10;38.40;;;;;;6154666;28;82468;-66
2021/10/29 10:24:23;;;;;;;17.95;11.25;;;27.20;38.40;;;;;;6149182;28;82902;-66
2021/10/29 10:30:37;;;;;;;18.33;12.90;;;27.40;38.30;;;;;;6152747;28;83174;-67
2021/10/29 10:46:40;;;;;;;34.20;18.48;;;27.50;37.50;;;;;;6148499;28;84399;-67
2021/10/29 10:49:54;;;;;;;252.27;88.78;;;27.50;37.70;;;;;;6147712;28;87647;-65
2021/10/29 10:52:57;;;;;;;139.98;52.10;;;27.50;37.50;;;;;;6149441;28;83263;-67
2021/10/29 10:56:12;;;;;;;113.75;41.75;;;27.50;36.80;;;;;;6141390;28;83364;-66
2021/10/29 10:59:16;;;;;;;83.80;33.30;;;27.60;37.20;;;;;;6140485;28;83179;-66
2021/10/29 11:12:07;;;;;;;39.40;17.45;;;27.70;36.90;;;;;;6139711;28;83136;-67
2021/10/29 11:15:08;;;;;;;27.42;15.95;;;27.70;36.90;;;;;;6138449;28;83108;-66
2021/10/29 11:18:09;;;;;;;271.80;91.78;;;27.70;36.90;;;;;;6138264;28;83065;-66
2021/10/29 11:21:12;;;;;;;257.33;86.88;;;27.80;37.00;;;;;;6139081;28;83216;-67
2021/10/29 11:24:12;;;;;;;159.48;57.42;;;27.80;37.00;;;;;;6143844;28;82982;-68
2021/10/29 11:27:13;;;;;;;109.82;41.70;;;27.80;36.50;;;;;;6142400;28;84368;-67
2021/10/29 11:30:13;;;;;;;101.15;36.80;;;27.80;36.30;;;;;;6138905;28;85382;-66
2021/10/29 11:33:14;;;;;;;81.07;31.65;;;27.90;36.80;;;;;;6135336;28;86218;-66
2021/10/29 11:36:14;;;;;;;115.18;41.80;;;27.90;36.70;;;;;;6145876;28;83575;-66
2021/10/29 11:39:15;;;;;;;101.18;38.05;;;28.00;37.90;;;;;;6143082;28;83247;-68
2021/10/29 11:42:16;;;;;;;76.53;29.98;;;27.90;37.90;;;;;;6140748;28;83156;-65
2021/10/29 11:45:16;;;;;;;56.80;23.27;;;27.90;37.20;;;;;;6144547;28;83809;-68
2021/10/29 11:48:17;;;;;;;46.13;20.00;;;27.90;36.70;;;;;;6144530;28;83440;-67
2021/10/29 11:51:18;;;;;;;33.40;17.27;;;27.90;36.00;;;;;;6143484;28;83452;-66
2021/10/29 11:54:26;;;;;;;27.77;15.52;;;27.80;35.30;;;;;;6143281;28;83495;-67
2021/10/29 11:57:46;;;;;;;23.02;12.90;;;27.80;35.10;;;;;;6149253;28;84179;-66
2021/10/29 12:01:12;;;;;;;22.25;13.68;;;27.80;34.80;;;;;;6144381;28;83460;-66
2021/10/29 12:07:27;;;;;;;20.20;12.18;;;27.80;34.80;;;;;;6144801;28;83370;-65
2021/10/29 12:10:27;;;;;;;24.25;12.23;;;27.80;34.80;;;;;;6136601;28;83127;-68
2021/10/29 12:13:28;;;;;;;22.87;13.90;;;27.80;35.00;;;;;;6147581;28;83374;-67
2021/10/29 12:16:28;;;;;;;19.27;13.00;;;27.80;34.90;;;;;;6135641;28;83387;-68
2021/10/29 12:19:29;;;;;;;20.48;11.75;;;27.80;34.90;;;;;;6138031;28;84028;-69
2021/10/29 12:28:54;;;;;;;13.93;9.43;;;28.00;35.70;;;;;;6134625;28;87501;-68
2021/10/29 12:38:34;;;;;;;14.65;9.45;;;28.10;35.90;;;;;;6135365;28;87940;-67
2021/10/29 12:52:01;;;;;;;15.65;9.05;;;28.30;36.40;;;;;;6147547;28;80693;-66
2021/10/29 13:04:31;;;;;;;14.65;9.82;;;28.40;36.60;;;;;;6151778;28;80422;-67
2021/10/29 13:07:32;;;;;;;17.83;11.77;;;28.40;36.90;;;;;;6146298;28;80380;-66
2021/10/29 13:10:32;;;;;;;15.63;10.73;;;28.40;36.50;;;;;;6138691;28;83065;-67
2021/10/29 13:16:36;;;;;;;20.15;11.60;;;28.50;36.00;;;;;;6142442;28;83021;-65
2021/10/29 13:36:14;;;;;;;18.67;11.93;;;30.20;34.40;;;;;;6140030;28;83949;-66
2021/10/29 13:52:47;;;;;;;18.58;11.73;;;31.20;33.30;;;;;;6133920;28;84166;-67
2021/10/29 13:56:10;;;;;;;16.92;11.80;;;30.80;34.20;;;;;;6138069;28;88037;-67
2021/10/29 14:29:10;;;;;;;13.52;9.27;;;28.50;36.00;;;;;;6134330;28;87600;-67
2021/10/29 14:41:41;;;;;;;19.10;10.45;;;28.20;36.40;;;;;;6136552;28;83144;-64
2021/10/29 14:45:07;;;;;;;12.43;8.57;;;28.00;36.10;;;;;;6133537;28;83471;-64
2021/10/29 15:43:20;;;;;;;25.80;12.75;;;26.60;37.50;;;;;;6147321;28;83719;-63
2021/10/29 15:46:28;;;;;;;25.67;12.05;;;26.50;37.50;;;;;;6139827;28;83436;-64
2021/10/29 15:49:39;;;;;;;24.40;12.45;;;26.40;37.50;;;;;;6142232;28;84023;-66
2021/10/29 15:52:40;;;;;;;23.13;12.05;;;26.40;37.20;;;;;;6136853;28;83807;-65
2021/10/29 15:55:44;;;;;;;29.55;14.43;;;26.40;37.10;;;;;;6144526;28;87756;-67
2021/10/29 15:58:57;;;;;;;22.00;12.68;;;26.30;37.10;;;;;;6147826;28;83136;-64
2021/10/29 16:02:10;;;;;;;24.38;15.23;;;26.30;37.40;;;;;;6142099;28;84362;-63
2021/10/29 16:18:28;;;;;;;40.08;16.27;;;26.30;39.00;;;;;;6133180;28;83306;-65
2021/10/29 16:21:29;;;;;;;29.00;15.85;;;26.20;39.30;;;;;;6135193;28;83737;-65
2021/10/29 16:24:29;;;;;;;27.92;14.90;;;26.20;39.00;;;;;;6136099;28;83872;-64
2021/10/29 16:27:43;;;;;;;28.60;14.93;;;26.20;39.30;;;;;;6142376;28;83608;-66
2021/10/29 16:30:44;;;;;;;25.92;15.25;;;26.10;39.00;;;;;;6145143;28;82974;-69
2021/10/29 16:33:44;;;;;;;32.63;17.45;;;26.10;39.20;;;;;;6148692;28;83789;-64
2021/10/29 16:36:45;;;;;;;40.03;18.55;;;26.10;39.00;;;;;;6145693;28;88185;-66
2021/10/29 16:39:47;;;;;;;38.53;19.27;;;26.10;38.90;;;;;;6142977;28;85349;-64
2021/10/29 16:42:47;;;;;;;35.05;20.85;;;26.10;38.90;;;;;;6143567;28;83108;-64
2021/10/29 16:45:48;;;;;;;46.85;21.17;;;26.10;38.60;;;;;;6148324;28;83324;-64
2021/10/29 16:48:49;;;;;;;39.63;20.20;;;26.10;38.90;;;;;;6145902;28;86496;-65
2021/10/29 16:51:49;;;;;;;38.08;21.95;;;26.10;38.70;;;;;;6146684;28;84771;-65
2021/10/29 16:54:50;;;;;;;45.83;21.35;;;26.00;38.80;;;;;;6146737;28;88635;-63
2021/10/29 16:57:50;;;;;;;40.88;23.17;;;26.00;38.60;;;;;;6144482;28;84336;-64
2021/10/29 17:00:51;;;;;;;44.80;24.27;;;25.90;38.60;;;;;;6131603;28;86602;-64
2021/10/29 17:03:51;;;;;;;45.55;26.00;;;25.90;38.90;;;;;;6149848;28;85133;-63
2021/10/29 17:06:52;;;;;;;48.25;24.90;;;25.90;38.50;;;;;;6141081;28;83104;-64
2021/10/29 17:09:53;;;;;;;45.50;25.88;;;25.90;38.70;;;;;;6149668;28;85302;-64
2021/10/29 17:12:54;;;;;;;41.47;25.35;;;25.90;38.40;;;;;;6140593;28;84284;-64
2021/10/29 17:15:54;;;;;;;42.72;24.52;;;25.80;38.00;;;;;;6152170;28;83926;-65
2021/10/29 17:18:55;;;;;;;43.65;26.55;;;25.70;37.70;;;;;;6145253;28;83549;-65
2021/10/29 17:21:56;;;;;;;43.50;25.75;;;25.70;37.30;;;;;;6143625;28;84040;-64
2021/10/29 17:24:56;;;;;;;46.03;27.08;;;25.70;38.20;;;;;;6138127;28;83777;-63
2021/10/29 17:27:57;;;;;;;48.35;26.25;;;25.70;37.50;;;;;;6140593;28;84160;-68
2021/10/29 17:30:57;;;;;;;43.92;26.80;;;25.70;37.10;;;;;;6140121;28;82890;-66
2021/10/29 17:33:58;;;;;;;42.03;25.73;;;25.60;36.70;;;;;;6138806;28;84971;-62
2021/10/29 17:36:58;;;;;;;42.42;24.70;;;25.50;36.60;;;;;;6138508;28;84507;-65
2021/10/29 17:39:59;;;;;;;42.70;22.55;;;25.50;37.10;;;;;;6138837;28;83841;-66
2021/10/29 17:42:59;;;;;;;39.70;21.63;;;25.50;36.70;;;;;;6140868;28;82958;-61
2021/10/29 17:46:00;;;;;;;35.72;20.80;;;25.40;36.30;;;;;;6152871;28;83357;-68
2021/10/29 17:49:01;;;;;;;37.30;20.63;;;25.20;36.50;;;;;;6153130;28;83572;-65
2021/10/29 17:52:03;;;;;;;36.38;19.73;;;25.20;37.20;;;;;;6143138;28;83146;-64
2021/10/29 17:55:03;;;;;;;40.28;19.17;;;25.10;37.00;;;;;;6140224;28;84035;-65
2021/10/29 17:58:04;;;;;;;39.00;20.92;;;25.00;37.20;;;;;;6142786;28;83217;-67
2021/10/29 18:01:04;;;;;;;45.50;20.90;;;24.90;37.30;;;;;;6145515;28;83501;-65
2021/10/29 18:04:05;;;;;;;39.50;20.42;;;24.90;37.30;;;;;;6143588;28;83310;-64
2021/10/29 18:07:06;;;;;;;30.80;17.55;;;24.90;37.50;;;;;;6146249;28;84125;-66
2021/10/29 18:10:07;;;;;;;31.67;17.85;;;24.90;37.80;;;;;;6147775;28;84251;-67
2021/10/29 18:13:07;;;;;;;33.25;17.85;;;24.80;37.60;;;;;;6142787;28;83155;-65
2021/10/29 18:16:08;;;;;;;28.27;18.50;;;24.70;37.80;;;;;;6143383;28;83810;-68
2021/10/29 18:19:08;;;;;;;25.48;16.25;;;24.70;38.00;;;;;;6141890;28;83953;-66
2021/10/29 18:22:09;;;;;;;34.45;18.58;;;24.70;37.70;;;;;;6147510;28;83283;-67
2021/10/29 18:25:09;;;;;;;31.27;16.60;;;24.70;37.80;;;;;;6137977;28;83074;-67
2021/10/29 18:28:11;;;;;;;34.45;18.10;;;24.60;37.70;;;;;;6142333;28;84288;-67
2021/10/29 18:31:12;;;;;;;31.63;17.15;;;24.50;37.60;;;;;;6141264;28;85468;-67
2021/10/29 18:34:12;;;;;;;33.13;18.05;;;24.50;37.70;;;;;;6141206;28;83391;-67
2021/10/29 18:37:13;;;;;;;32.55;17.95;;;24.50;37.20;;;;;;6139150;28;84597;-69
2021/10/29 18:40:14;;;;;;;36.42;18.08;;;24.40;37.20;;;;;;6136244;28;83823;-68
2021/10/29 18:43:14;;;;;;;33.13;17.70;;;24.40;37.40;;;;;;6142962;28;83519;-67
2021/10/29 18:46:16;;;;;;;25.08;16.15;;;24.40;37.80;;;;;;6149497;28;83446;-68
2021/10/29 18:49:17;;;;;;;29.35;16.25;;;24.70;37.70;;;;;;6146322;28;83331;-68
2021/10/29 18:52:17;;;;;;;28.83;16.52;;;24.80;38.20;;;;;;6150190;28;84355;-68
2021/10/29 18:55:18;;;;;;;32.05;15.43;;;24.90;38.10;;;;;;6149215;28;84356;-68
2021/10/29 18:58:18;;;;;;;32.95;16.50;;;25.00;38.10;;;;;;6148830;28;84264;-68
2021/10/29 19:01:21;;;;;;;30.73;15.85;;;25.10;38.50;;;;;;6144785;28;84825;-68
2021/10/29 19:04:21;;;;;;;26.60;15.20;;;25.20;38.60;;;;;;6139631;28;83031;-65
2021/10/29 19:07:22;;;;;;;24.38;15.65;;;25.30;38.50;;;;;;6146903;28;83358;-66
2021/10/29 19:10:22;;;;;;;28.52;17.65;;;25.30;38.80;;;;;;6147235;28;84557;-65
2021/10/29 19:13:24;;;;;;;31.70;17.05;;;25.40;38.70;;;;;;6146757;28;84157;-66
2021/10/29 19:16:24;;;;;;;37.60;17.70;;;25.40;38.40;;;;;;6144233;28;83207;-66
2021/10/29 19:19:25;;;;;;;34.38;18.23;;;25.50;38.30;;;;;;6150829;28;83987;-66
2021/10/29 19:22:25;;;;;;;29.95;17.63;;;25.60;38.30;;;;;;6156359;28;83237;-67
2021/10/29 19:25:26;;;;;;;29.35;17.55;;;25.50;38.20;;;;;;6137320;28;84029;-66
2021/10/29 19:28:26;;;;;;;27.65;17.73;;;25.60;38.20;;;;;;6144623;28;83537;-66
2021/10/29 19:31:27;;;;;;;32.35;19.33;;;25.60;38.10;;;;;;6153360;28;83653;-68
2021/10/29 19:34:28;;;;;;;31.15;18.73;;;25.70;38.10;;;;;;6163453;28;84154;-67
2021/10/29 19:37:37;;;;;;;32.65;18.88;;;25.70;38.00;;;;;;6150025;28;83505;-67
2021/10/29 19:40:47;;;;;;;31.13;18.65;;;25.70;38.00;;;;;;6151420;28;83724;-67
2021/10/29 19:43:47;;;;;;;33.38;18.75;;;25.80;37.90;;;;;;6153999;28;86367;-67
2021/10/29 19:46:48;;;;;;;28.90;17.90;;;25.80;38.30;;;;;;6147565;28;83075;-67
2021/10/29 19:49:48;;;;;;;30.38;18.58;;;25.70;38.10;;;;;;6156169;28;84276;-67
2021/10/29 19:52:49;;;;;;;35.58;20.90;;;25.70;38.20;;;;;;6151869;28;85776;-67
2021/10/29 19:55:50;;;;;;;31.23;18.80;;;25.80;38.40;;;;;;6154842;28;83307;-67
2021/10/29 19:58:50;;;;;;;32.75;19.45;;;25.80;38.80;;;;;;6156357;28;84348;-67
2021/10/29 20:01:51;;;;;;;32.85;19.33;;;25.80;39.50;;;;;;6152080;28;83074;-68
2021/10/29 20:04:52;;;;;;;37.03;20.38;;;25.80;38.70;;;;;;6148714;28;83266;-68
2021/10/29 20:07:53;;;;;;;34.05;20.40;;;25.80;39.10;;;;;;6153189;28;83766;-68